sensor_id;sensor_type;location;lat;lon;timestamp;pressure;altitude;pressure_sealevel;temperature;humidity
73600;BME280;61877;48.246;9.220;2022-11-24T00:01:46;93462.53;;;1.71;100.00
73600;BME280;61877;48.246;9.220;2022-11-24T00:04:13;93460.84;;;1.89;100.00
73600;BME280;61877;48.246;9.220;2022-11-24T00:06:38;93458.84;;;1.94;100.00
73600;BME280;61877;48.246;9.220;2022-11-24T00:09:04;93469.19;;;2.04;100.00
73600;BME280;61877;48.246;9.220;2022-11-24T00:11:31;93474.03;;;2.24;100.00
73600;BME280;61877;48.246;9.220;2022-11-24T00:13:57;93469.72;;;2.28;100.00
73600;BME280;61877;48.246;9.220;2022-11-24T00:16:25;93471.03;;;2.39;100.00
73600;BME280;61877;48.246;9.220;2022-11-24T00:18:52;93461.75;;;2.50;100.00
73600;BME280;61877;48.246;9.220;2022-11-24T00:21:20;93459.34;;;2.62;100.00
73600;BME280;61877;48.246;9.220;2022-11-24T00:23:46;93471.78;;;2.62;99.79
73600;BME280;61877;48.246;9.220;2022-11-24T00:26:14;93471.06;;;2.70;99.51
73600;BME280;61877;48.246;9.220;2022-11-24T00:28:40;93473.59;;;2.75;99.64
73600;BME280;61877;48.246;9.220;2022-11-24T00:31:14;93473.16;;;2.82;99.44
73600;BME280;61877;48.246;9.220;2022-11-24T00:33:40;93472.38;;;2.81;99.25
73600;BME280;61877;48.246;9.220;2022-11-24T00:36:05;93474.06;;;2.77;99.13
73600;BME280;61877;48.246;9.220;2022-11-24T00:38:32;93473.59;;;2.75;99.33
73600;BME280;61877;48.246;9.220;2022-11-24T00:40:58;93471.41;;;2.77;99.46
73600;BME280;61877;48.246;9.220;2022-11-24T00:43:23;93476.41;;;2.79;99.40
73600;BME280;61877;48.246;9.220;2022-11-24T00:45:48;93482.03;;;2.86;99.34
73600;BME280;61877;48.246;9.220;2022-11-24T00:48:14;93485.19;;;2.88;99.46
73600;BME280;61877;48.246;9.220;2022-11-24T00:50:39;93489.09;;;2.90;99.19
73600;BME280;61877;48.246;9.220;2022-11-24T00:53:05;93495.22;;;2.99;99.30
73600;BME280;61877;48.246;9.220;2022-11-24T00:55:31;93495.56;;;3.06;99.40
73600;BME280;61877;48.246;9.220;2022-11-24T00:57:57;93494.34;;;3.12;99.38
73600;BME280;61877;48.246;9.220;2022-11-24T01:00:22;93498.25;;;3.15;99.25
73600;BME280;61877;48.246;9.220;2022-11-24T01:02:48;93494.19;;;3.17;99.17
73600;BME280;61877;48.246;9.220;2022-11-24T01:05:13;93499.81;;;3.16;99.04
73600;BME280;61877;48.246;9.220;2022-11-24T01:07:39;93501.81;;;3.10;98.81
73600;BME280;61877;48.246;9.220;2022-11-24T01:10:05;93504.13;;;3.03;99.04
73600;BME280;61877;48.246;9.220;2022-11-24T01:12:33;93508.94;;;3.01;99.21
73600;BME280;61877;48.246;9.220;2022-11-24T01:14:58;93519.13;;;2.86;97.98
73600;BME280;61877;48.246;9.220;2022-11-24T01:17:24;93524.63;;;2.67;98.01
73600;BME280;61877;48.246;9.220;2022-11-24T01:19:50;93535.47;;;2.57;98.20
73600;BME280;61877;48.246;9.220;2022-11-24T01:22:15;93540.09;;;2.51;98.64
73600;BME280;61877;48.246;9.220;2022-11-24T01:24:41;93550.00;;;2.46;98.47
73600;BME280;61877;48.246;9.220;2022-11-24T01:27:06;93557.00;;;2.42;98.48
73600;BME280;61877;48.246;9.220;2022-11-24T01:29:33;93547.47;;;2.41;98.82
73600;BME280;61877;48.246;9.220;2022-11-24T01:31:58;93557.22;;;2.32;98.53
73600;BME280;61877;48.246;9.220;2022-11-24T01:34:24;93558.22;;;2.22;98.62
73600;BME280;61877;48.246;9.220;2022-11-24T01:36:49;93558.72;;;2.11;98.15
73600;BME280;61877;48.246;9.220;2022-11-24T01:39:15;93559.84;;;1.96;97.89
73600;BME280;61877;48.246;9.220;2022-11-24T01:41:40;93559.56;;;1.84;98.11
73600;BME280;61877;48.246;9.220;2022-11-24T01:44:20;93566.72;;;1.70;98.00
73600;BME280;61877;48.246;9.220;2022-11-24T01:46:51;93569.56;;;1.60;98.27
73600;BME280;61877;48.246;9.220;2022-11-24T01:49:20;93566.53;;;1.53;98.33
73600;BME280;61877;48.246;9.220;2022-11-24T01:51:49;93576.41;;;1.48;98.41
73600;BME280;61877;48.246;9.220;2022-11-24T01:54:19;93579.34;;;1.46;98.47
73600;BME280;61877;48.246;9.220;2022-11-24T01:56:48;93583.28;;;1.49;98.66
73600;BME280;61877;48.246;9.220;2022-11-24T01:59:16;93582.00;;;1.46;98.50
73600;BME280;61877;48.246;9.220;2022-11-24T02:01:42;93579.44;;;1.41;98.49
73600;BME280;61877;48.246;9.220;2022-11-24T02:04:11;93581.72;;;1.34;98.61
73600;BME280;61877;48.246;9.220;2022-11-24T02:06:39;93574.25;;;1.22;98.36
73600;BME280;61877;48.246;9.220;2022-11-24T02:09:10;93581.19;;;1.18;98.42
73600;BME280;61877;48.246;9.220;2022-11-24T02:11:38;93589.56;;;1.07;98.44
73600;BME280;61877;48.246;9.220;2022-11-24T02:14:06;93588.09;;;1.01;98.58
73600;BME280;61877;48.246;9.220;2022-11-24T02:16:34;93599.06;;;0.94;98.69
73600;BME280;61877;48.246;9.220;2022-11-24T02:19:00;93607.06;;;0.89;98.69
73600;BME280;61877;48.246;9.220;2022-11-24T02:21:27;93599.13;;;0.89;98.99
73600;BME280;61877;48.246;9.220;2022-11-24T02:23:57;93602.25;;;0.91;98.96
73600;BME280;61877;48.246;9.220;2022-11-24T02:26:38;93599.31;;;0.93;99.00
73600;BME280;61877;48.246;9.220;2022-11-24T02:29:04;93596.66;;;0.93;99.12
73600;BME280;61877;48.246;9.220;2022-11-24T02:31:30;93597.84;;;0.87;98.74
73600;BME280;61877;48.246;9.220;2022-11-24T02:33:55;93599.75;;;0.81;99.02
73600;BME280;61877;48.246;9.220;2022-11-24T02:36:21;93598.00;;;0.77;98.90
73600;BME280;61877;48.246;9.220;2022-11-24T02:38:46;93590.44;;;0.70;98.76
73600;BME280;61877;48.246;9.220;2022-11-24T02:41:15;93589.25;;;0.63;98.73
73600;BME280;61877;48.246;9.220;2022-11-24T02:43:46;93593.59;;;0.54;98.57
73600;BME280;61877;48.246;9.220;2022-11-24T02:46:12;93594.56;;;0.44;98.62
73600;BME280;61877;48.246;9.220;2022-11-24T02:48:38;93596.97;;;0.41;98.76
73600;BME280;61877;48.246;9.220;2022-11-24T02:51:04;93601.09;;;0.47;99.01
73600;BME280;61877;48.246;9.220;2022-11-24T02:53:30;93601.09;;;0.47;98.80
73600;BME280;61877;48.246;9.220;2022-11-24T02:55:55;93594.63;;;0.39;98.58
73600;BME280;61877;48.246;9.220;2022-11-24T02:58:21;93604.25;;;0.30;98.59
73600;BME280;61877;48.246;9.220;2022-11-24T03:00:48;93600.34;;;0.28;98.84
73600;BME280;61877;48.246;9.220;2022-11-24T03:03:13;93599.09;;;0.20;98.51
73600;BME280;61877;48.246;9.220;2022-11-24T03:05:39;93594.84;;;0.24;98.76
73600;BME280;61877;48.246;9.220;2022-11-24T03:08:04;93597.75;;;0.23;98.74
73600;BME280;61877;48.246;9.220;2022-11-24T03:10:30;93593.84;;;0.20;98.67
73600;BME280;61877;48.246;9.220;2022-11-24T03:12:56;93596.00;;;0.18;98.79
73600;BME280;61877;48.246;9.220;2022-11-24T03:15:21;93600.69;;;0.21;99.15
73600;BME280;61877;48.246;9.220;2022-11-24T03:17:48;93604.19;;;0.17;98.87
73600;BME280;61877;48.246;9.220;2022-11-24T03:20:14;93610.50;;;0.16;99.01
73600;BME280;61877;48.246;9.220;2022-11-24T03:22:39;93608.22;;;0.09;98.88
73600;BME280;61877;48.246;9.220;2022-11-24T03:25:05;93605.88;;;0.08;99.18
73600;BME280;61877;48.246;9.220;2022-11-24T03:27:30;93602.97;;;0.09;99.10
73600;BME280;61877;48.246;9.220;2022-11-24T03:29:56;93607.09;;;0.15;99.25
73600;BME280;61877;48.246;9.220;2022-11-24T03:32:22;93607.66;;;0.12;98.72
73600;BME280;61877;48.246;9.220;2022-11-24T03:34:49;93609.78;;;0.10;98.95
73600;BME280;61877;48.246;9.220;2022-11-24T03:37:14;93617.78;;;0.24;99.81
73600;BME280;61877;48.246;9.220;2022-11-24T03:39:39;93620.19;;;0.20;99.32
73600;BME280;61877;48.246;9.220;2022-11-24T03:42:05;93616.59;;;0.16;99.26
73600;BME280;61877;48.246;9.220;2022-11-24T03:44:30;93617.69;;;0.10;99.09
73600;BME280;61877;48.246;9.220;2022-11-24T03:46:56;93623.25;;;0.09;99.11
73600;BME280;61877;48.246;9.220;2022-11-24T03:49:21;93630.94;;;0.05;99.09
73600;BME280;61877;48.246;9.220;2022-11-24T03:51:48;93634.22;;;-0.03;98.79
73600;BME280;61877;48.246;9.220;2022-11-24T03:54:14;93627.16;;;-0.08;98.70
73600;BME280;61877;48.246;9.220;2022-11-24T03:56:39;93634.84;;;-0.11;99.03
73600;BME280;61877;48.246;9.220;2022-11-24T03:59:04;93634.63;;;-0.15;99.22
73600;BME280;61877;48.246;9.220;2022-11-24T04:01:30;93635.06;;;-0.08;99.46
73600;BME280;61877;48.246;9.220;2022-11-24T04:03:55;93632.38;;;-0.03;99.13
73600;BME280;61877;48.246;9.220;2022-11-24T04:06:21;93647.63;;;0.00;99.18
73600;BME280;61877;48.246;9.220;2022-11-24T04:08:47;93649.50;;;0.00;99.30
73600;BME280;61877;48.246;9.220;2022-11-24T04:11:13;93655.31;;;-0.03;99.15
73600;BME280;61877;48.246;9.220;2022-11-24T04:13:38;93659.03;;;-0.04;98.82
73600;BME280;61877;48.246;9.220;2022-11-24T04:16:04;93656.38;;;-0.04;98.99
73600;BME280;61877;48.246;9.220;2022-11-24T04:18:30;93659.53;;;-0.02;98.56
73600;BME280;61877;48.246;9.220;2022-11-24T04:20:55;93669.75;;;0.05;98.93
73600;BME280;61877;48.246;9.220;2022-11-24T04:23:21;93673.25;;;0.19;99.82
73600;BME280;61877;48.246;9.220;2022-11-24T04:25:47;93667.63;;;0.25;99.23
73600;BME280;61877;48.246;9.220;2022-11-24T04:28:13;93681.25;;;0.32;99.28
73600;BME280;61877;48.246;9.220;2022-11-24T04:30:39;93685.88;;;0.40;99.70
73600;BME280;61877;48.246;9.220;2022-11-24T04:33:04;93693.97;;;0.49;99.69
73600;BME280;61877;48.246;9.220;2022-11-24T04:35:29;93689.63;;;0.58;99.70
73600;BME280;61877;48.246;9.220;2022-11-24T04:37:55;93688.91;;;0.71;99.77
73600;BME280;61877;48.246;9.220;2022-11-24T04:40:20;93687.97;;;0.80;99.62
73600;BME280;61877;48.246;9.220;2022-11-24T04:42:52;93682.03;;;0.88;99.34
73600;BME280;61877;48.246;9.220;2022-11-24T04:45:18;93690.09;;;0.97;99.73
73600;BME280;61877;48.246;9.220;2022-11-24T04:47:43;93682.09;;;1.02;99.61
73600;BME280;61877;48.246;9.220;2022-11-24T04:50:08;93681.22;;;1.06;99.82
73600;BME280;61877;48.246;9.220;2022-11-24T04:52:34;93679.88;;;1.09;99.77
73600;BME280;61877;48.246;9.220;2022-11-24T04:54:59;93678.50;;;1.11;99.91
73600;BME280;61877;48.246;9.220;2022-11-24T04:57:25;93684.63;;;1.25;100.00
73600;BME280;61877;48.246;9.220;2022-11-24T04:59:52;93684.28;;;1.46;100.00
73600;BME280;61877;48.246;9.220;2022-11-24T05:02:18;93684.72;;;1.66;100.00
73600;BME280;61877;48.246;9.220;2022-11-24T05:04:44;93691.78;;;1.71;100.00
73600;BME280;61877;48.246;9.220;2022-11-24T05:07:10;93689.03;;;1.62;100.00
73600;BME280;61877;48.246;9.220;2022-11-24T05:09:35;93686.84;;;1.51;100.00
73600;BME280;61877;48.246;9.220;2022-11-24T05:12:01;93685.44;;;1.40;99.98
73600;BME280;61877;48.246;9.220;2022-11-24T05:14:26;93692.47;;;1.30;100.00
73600;BME280;61877;48.246;9.220;2022-11-24T05:16:53;93691.47;;;1.26;100.00
73600;BME280;61877;48.246;9.220;2022-11-24T05:19:19;93694.94;;;1.41;100.00
73600;BME280;61877;48.246;9.220;2022-11-24T05:21:44;93697.81;;;1.58;100.00
73600;BME280;61877;48.246;9.220;2022-11-24T05:24:10;93692.59;;;1.53;100.00
73600;BME280;61877;48.246;9.220;2022-11-24T05:26:35;93699.28;;;1.50;100.00
73600;BME280;61877;48.246;9.220;2022-11-24T05:29:00;93697.72;;;1.49;100.00
73600;BME280;61877;48.246;9.220;2022-11-24T05:31:26;93693.28;;;1.45;100.00
73600;BME280;61877;48.246;9.220;2022-11-24T05:33:52;93688.50;;;1.47;100.00
73600;BME280;61877;48.246;9.220;2022-11-24T05:36:18;93701.38;;;1.34;100.00
73600;BME280;61877;48.246;9.220;2022-11-24T05:38:43;93701.63;;;1.19;100.00
73600;BME280;61877;48.246;9.220;2022-11-24T05:41:09;93705.78;;;1.07;99.63
73600;BME280;61877;48.246;9.220;2022-11-24T05:43:34;93706.81;;;0.92;99.72
73600;BME280;61877;48.246;9.220;2022-11-24T05:46:00;93708.28;;;0.80;99.50
73600;BME280;61877;48.246;9.220;2022-11-24T05:48:26;93712.44;;;0.67;99.65
73600;BME280;61877;48.246;9.220;2022-11-24T05:50:54;93718.38;;;0.59;99.81
73600;BME280;61877;48.246;9.220;2022-11-24T05:53:19;93725.56;;;0.54;99.64
73600;BME280;61877;48.246;9.220;2022-11-24T05:55:45;93713.66;;;0.56;100.00
73600;BME280;61877;48.246;9.220;2022-11-24T05:58:10;93721.50;;;0.61;100.00
73600;BME280;61877;48.246;9.220;2022-11-24T06:00:36;93727.41;;;0.72;100.00
73600;BME280;61877;48.246;9.220;2022-11-24T06:03:01;93731.78;;;0.81;100.00
73600;BME280;61877;48.246;9.220;2022-11-24T06:05:27;93727.72;;;0.89;100.00
73600;BME280;61877;48.246;9.220;2022-11-24T06:07:55;93726.19;;;1.01;100.00
73600;BME280;61877;48.246;9.220;2022-11-24T06:10:22;93730.13;;;1.22;99.66
73600;BME280;61877;48.246;9.220;2022-11-24T06:12:47;93731.41;;;1.25;99.45
73600;BME280;61877;48.246;9.220;2022-11-24T06:15:12;93738.44;;;1.29;99.74
73600;BME280;61877;48.246;9.220;2022-11-24T06:17:38;93735.72;;;1.34;99.79
73600;BME280;61877;48.246;9.220;2022-11-24T06:20:05;93740.66;;;1.41;99.76
73600;BME280;61877;48.246;9.220;2022-11-24T06:22:31;93737.38;;;1.49;99.45
73600;BME280;61877;48.246;9.220;2022-11-24T06:24:58;93734.72;;;1.49;99.76
73600;BME280;61877;48.246;9.220;2022-11-24T06:27:24;93731.19;;;1.54;99.58
73600;BME280;61877;48.246;9.220;2022-11-24T06:29:50;93728.78;;;1.57;99.71
73600;BME280;61877;48.246;9.220;2022-11-24T06:32:15;93731.91;;;1.73;100.00
73600;BME280;61877;48.246;9.220;2022-11-24T06:34:41;93736.81;;;1.79;100.00
73600;BME280;61877;48.246;9.220;2022-11-24T07:26:39;93779.44;;;3.49;99.86
73600;BME280;61877;48.246;9.220;2022-11-24T07:29:04;93773.84;;;3.50;99.97
73600;BME280;61877;48.246;9.220;2022-11-24T07:31:30;93778.53;;;3.53;99.92
73600;BME280;61877;48.246;9.220;2022-11-24T07:33:56;93778.47;;;3.67;99.80
73600;BME280;61877;48.246;9.220;2022-11-24T07:36:22;93789.47;;;3.74;99.30
73600;BME280;61877;48.246;9.220;2022-11-24T07:38:49;93781.63;;;3.69;99.05
73600;BME280;61877;48.246;9.220;2022-11-24T07:41:26;93783.78;;;3.67;99.09
73600;BME280;61877;48.246;9.220;2022-11-24T07:44:18;93791.81;;;3.75;99.00
73600;BME280;61877;48.246;9.220;2022-11-24T07:46:51;93801.16;;;3.73;98.86
73600;BME280;61877;48.246;9.220;2022-11-24T07:49:19;93793.84;;;3.78;99.10
73600;BME280;61877;48.246;9.220;2022-11-24T07:51:48;93804.47;;;3.78;99.20
73600;BME280;61877;48.246;9.220;2022-11-24T07:54:26;93800.75;;;3.79;99.16
73600;BME280;61877;48.246;9.220;2022-11-24T07:56:55;93805.50;;;3.91;99.39
73600;BME280;61877;48.246;9.220;2022-11-24T07:59:28;93809.59;;;3.97;98.69
73600;BME280;61877;48.246;9.220;2022-11-24T08:02:06;93799.34;;;4.04;98.35
73600;BME280;61877;48.246;9.220;2022-11-24T08:04:36;93800.94;;;4.14;99.00
73600;BME280;61877;48.246;9.220;2022-11-24T08:07:04;93814.22;;;4.14;98.67
73600;BME280;61877;48.246;9.220;2022-11-24T08:09:36;93812.66;;;4.13;98.47
73600;BME280;61877;48.246;9.220;2022-11-24T08:12:12;93832.19;;;4.17;98.13
73600;BME280;61877;48.246;9.220;2022-11-24T08:14:48;93828.78;;;4.16;98.19
73600;BME280;61877;48.246;9.220;2022-11-24T08:17:15;93840.16;;;4.17;98.15
73600;BME280;61877;48.246;9.220;2022-11-24T08:19:41;93850.13;;;4.11;98.05
73600;BME280;61877;48.246;9.220;2022-11-24T08:22:07;93856.88;;;4.17;97.77
73600;BME280;61877;48.246;9.220;2022-11-24T08:24:32;93854.66;;;4.11;97.35
73600;BME280;61877;48.246;9.220;2022-11-24T08:26:57;93866.81;;;4.12;95.36
73600;BME280;61877;48.246;9.220;2022-11-24T08:29:26;93855.91;;;4.13;95.08
73600;BME280;61877;48.246;9.220;2022-11-24T08:31:54;93850.66;;;4.22;93.86
73600;BME280;61877;48.246;9.220;2022-11-24T08:34:20;93851.88;;;4.16;92.49
73600;BME280;61877;48.246;9.220;2022-11-24T08:36:45;93848.66;;;4.05;93.10
73600;BME280;61877;48.246;9.220;2022-11-24T08:39:10;93844.59;;;3.99;92.52
73600;BME280;61877;48.246;9.220;2022-11-24T08:41:36;93857.84;;;3.99;93.00
73600;BME280;61877;48.246;9.220;2022-11-24T08:44:01;93861.69;;;3.93;93.19
73600;BME280;61877;48.246;9.220;2022-11-24T08:46:27;93855.25;;;4.08;91.35
73600;BME280;61877;48.246;9.220;2022-11-24T08:49:03;93849.09;;;4.21;92.20
73600;BME280;61877;48.246;9.220;2022-11-24T08:51:29;93857.56;;;4.23;92.22
73600;BME280;61877;48.246;9.220;2022-11-24T08:53:55;93853.44;;;4.17;91.09
73600;BME280;61877;48.246;9.220;2022-11-24T08:56:21;93852.13;;;4.28;91.89
73600;BME280;61877;48.246;9.220;2022-11-24T08:58:47;93850.28;;;4.37;90.44
73600;BME280;61877;48.246;9.220;2022-11-24T09:01:17;93855.06;;;4.57;91.76
73600;BME280;61877;48.246;9.220;2022-11-24T09:03:45;93868.97;;;4.54;90.41
73600;BME280;61877;48.246;9.220;2022-11-24T09:06:12;93862.25;;;4.56;88.99
73600;BME280;61877;48.246;9.220;2022-11-24T09:08:38;93866.22;;;4.67;88.12
73600;BME280;61877;48.246;9.220;2022-11-24T09:11:06;93863.31;;;4.86;88.04
73600;BME280;61877;48.246;9.220;2022-11-24T09:13:32;93867.19;;;5.19;88.20
73600;BME280;61877;48.246;9.220;2022-11-24T09:16:01;93870.44;;;5.64;85.45
73600;BME280;61877;48.246;9.220;2022-11-24T09:18:28;93866.53;;;5.95;84.82
73600;BME280;61877;48.246;9.220;2022-11-24T09:20:53;93870.59;;;5.76;84.38
73600;BME280;61877;48.246;9.220;2022-11-24T09:23:20;93875.75;;;5.64;85.76
73600;BME280;61877;48.246;9.220;2022-11-24T09:25:46;93880.13;;;5.60;83.11
73600;BME280;61877;48.246;9.220;2022-11-24T09:28:11;93881.03;;;5.47;85.94
73600;BME280;61877;48.246;9.220;2022-11-24T09:30:37;93871.81;;;5.61;86.85
73600;BME280;61877;48.246;9.220;2022-11-24T09:33:03;93867.63;;;5.77;88.70
73600;BME280;61877;48.246;9.220;2022-11-24T09:35:29;93868.75;;;5.85;87.01
73600;BME280;61877;48.246;9.220;2022-11-24T09:37:57;93875.97;;;6.01;87.46
73600;BME280;61877;48.246;9.220;2022-11-24T09:40:27;93876.28;;;6.08;87.06
73600;BME280;61877;48.246;9.220;2022-11-24T09:43:10;93875.75;;;6.40;87.60
73600;BME280;61877;48.246;9.220;2022-11-24T09:45:42;93884.22;;;6.60;86.23
73600;BME280;61877;48.246;9.220;2022-11-24T09:48:14;93884.63;;;6.79;84.27
73600;BME280;61877;48.246;9.220;2022-11-24T09:50:49;93887.59;;;6.86;85.06
73600;BME280;61877;48.246;9.220;2022-11-24T09:53:24;93881.13;;;6.95;84.62
73600;BME280;61877;48.246;9.220;2022-11-24T09:56:03;93883.38;;;7.22;82.99
73600;BME280;61877;48.246;9.220;2022-11-24T09:58:42;93887.69;;;7.35;80.63
73600;BME280;61877;48.246;9.220;2022-11-24T10:01:41;93892.78;;;7.20;79.01
73600;BME280;61877;48.246;9.220;2022-11-24T10:04:13;93895.88;;;6.93;81.75
73600;BME280;61877;48.246;9.220;2022-11-24T10:06:44;93899.38;;;6.85;84.28
73600;BME280;61877;48.246;9.220;2022-11-24T10:09:21;93886.53;;;6.70;84.01
73600;BME280;61877;48.246;9.220;2022-11-24T10:11:57;93903.78;;;6.72;85.68
73600;BME280;61877;48.246;9.220;2022-11-24T10:14:45;93903.47;;;6.65;85.18
73600;BME280;61877;48.246;9.220;2022-11-24T10:19:55;93905.94;;;6.79;82.02
73600;BME280;61877;48.246;9.220;2022-11-24T10:22:33;93913.03;;;6.75;83.11
73600;BME280;61877;48.246;9.220;2022-11-24T10:25:11;93914.88;;;6.83;84.32
73600;BME280;61877;48.246;9.220;2022-11-24T10:27:46;93917.72;;;6.78;85.79
73600;BME280;61877;48.246;9.220;2022-11-24T10:30:23;93920.38;;;6.78;85.64
73600;BME280;61877;48.246;9.220;2022-11-24T10:32:52;93925.72;;;6.78;85.47
73600;BME280;61877;48.246;9.220;2022-11-24T10:35:22;93920.47;;;6.98;85.29
73600;BME280;61877;48.246;9.220;2022-11-24T10:37:57;93918.09;;;7.05;85.77
73600;BME280;61877;48.246;9.220;2022-11-24T10:40:34;93923.28;;;7.02;84.80
73600;BME280;61877;48.246;9.220;2022-11-24T10:43:03;93923.72;;;7.50;84.20
73600;BME280;61877;48.246;9.220;2022-11-24T10:45:28;93916.81;;;9.26;79.75
73600;BME280;61877;48.246;9.220;2022-11-24T10:47:56;93907.69;;;9.99;75.66
73600;BME280;61877;48.246;9.220;2022-11-24T10:50:24;93911.78;;;12.09;68.78
73600;BME280;61877;48.246;9.220;2022-11-24T10:52:55;93896.16;;;13.51;61.42
73600;BME280;61877;48.246;9.220;2022-11-24T10:55:25;93893.63;;;14.66;54.88
73600;BME280;61877;48.246;9.220;2022-11-24T10:57:50;93895.16;;;15.67;53.33
73600;BME280;61877;48.246;9.220;2022-11-24T11:00:39;93915.50;;;15.54;48.51
73600;BME280;61877;48.246;9.220;2022-11-24T11:03:16;93911.53;;;14.78;51.00
73600;BME280;61877;48.246;9.220;2022-11-24T11:05:45;93910.94;;;13.61;56.81
73600;BME280;61877;48.246;9.220;2022-11-24T11:08:24;93917.69;;;12.33;57.66
73600;BME280;61877;48.246;9.220;2022-11-24T11:13:56;93927.00;;;9.92;67.25
73600;BME280;61877;48.246;9.220;2022-11-24T11:16:32;93912.66;;;10.92;65.57
73600;BME280;61877;48.246;9.220;2022-11-24T11:22:00;93899.72;;;13.81;57.15
73600;BME280;61877;48.246;9.220;2022-11-24T11:24:28;93899.72;;;14.89;50.62
73600;BME280;61877;48.246;9.220;2022-11-24T11:26:59;93898.59;;;15.27;48.75
73600;BME280;61877;48.246;9.220;2022-11-24T11:29:27;93897.75;;;15.56;48.84
73600;BME280;61877;48.246;9.220;2022-11-24T11:32:01;93911.22;;;15.52;50.09
73600;BME280;61877;48.246;9.220;2022-11-24T11:34:32;93909.22;;;16.40;48.47
73600;BME280;61877;48.246;9.220;2022-11-24T11:37:02;93908.78;;;15.81;50.32
73600;BME280;61877;48.246;9.220;2022-11-24T11:39:39;93906.00;;;15.74;50.24
73600;BME280;61877;48.246;9.220;2022-11-24T11:42:14;93904.34;;;15.59;50.62
73600;BME280;61877;48.246;9.220;2022-11-24T11:44:47;93902.63;;;15.40;51.07
73600;BME280;61877;48.246;9.220;2022-11-24T11:49:48;93914.72;;;14.28;52.29
73600;BME280;61877;48.246;9.220;2022-11-24T11:52:36;93917.41;;;13.34;55.56
73600;BME280;61877;48.246;9.220;2022-11-24T11:55:27;93919.03;;;13.00;53.95
73600;BME280;61877;48.246;9.220;2022-11-24T11:58:21;93918.84;;;11.66;59.01
73600;BME280;61877;48.246;9.220;2022-11-24T12:00:56;93922.09;;;11.29;59.83
73600;BME280;61877;48.246;9.220;2022-11-24T12:03:37;93924.59;;;12.69;55.07
73600;BME280;61877;48.246;9.220;2022-11-24T12:06:15;93920.47;;;14.52;48.68
73600;BME280;61877;48.246;9.220;2022-11-24T12:08:49;93917.03;;;14.85;47.17
73600;BME280;61877;48.246;9.220;2022-11-24T12:11:24;93912.78;;;16.48;42.40
73600;BME280;61877;48.246;9.220;2022-11-24T12:14:06;93915.06;;;15.15;44.06
73600;BME280;61877;48.246;9.220;2022-11-24T12:16:41;93918.59;;;13.81;48.77
73600;BME280;61877;48.246;9.220;2022-11-24T12:19:30;93926.69;;;13.81;49.06
73600;BME280;61877;48.246;9.220;2022-11-24T12:22:06;93927.81;;;12.40;53.17
73600;BME280;61877;48.246;9.220;2022-11-24T12:24:40;93925.09;;;14.03;48.26
73600;BME280;61877;48.246;9.220;2022-11-24T12:27:18;93935.81;;;13.51;50.36
73600;BME280;61877;48.246;9.220;2022-11-24T12:29:58;93927.97;;;15.65;46.16
73600;BME280;61877;48.246;9.220;2022-11-24T12:35:21;93939.28;;;12.37;52.27
73600;BME280;61877;48.246;9.220;2022-11-24T12:37:58;93936.38;;;12.11;54.89
73600;BME280;61877;48.246;9.220;2022-11-24T12:40:42;93940.53;;;11.30;54.81
73600;BME280;61877;48.246;9.220;2022-11-24T12:43:18;93934.72;;;13.55;50.19
73600;BME280;61877;48.246;9.220;2022-11-24T12:45:51;93924.38;;;15.54;48.74
73600;BME280;61877;48.246;9.220;2022-11-24T12:48:28;93921.44;;;16.13;45.42
73600;BME280;61877;48.246;9.220;2022-11-24T12:50:55;93922.63;;;16.19;44.91
73600;BME280;61877;48.246;9.220;2022-11-24T12:56:34;93925.16;;;13.16;50.11
73600;BME280;61877;48.246;9.220;2022-11-24T12:59:26;93933.59;;;12.23;54.14
73600;BME280;61877;48.246;9.220;2022-11-24T13:02:03;93928.88;;;11.54;56.27
73600;BME280;61877;48.246;9.220;2022-11-24T13:04:37;93937.66;;;11.23;57.61
73600;BME280;61877;48.246;9.220;2022-11-24T13:07:10;93945.22;;;10.63;58.51
73600;BME280;61877;48.246;9.220;2022-11-24T13:09:49;93940.84;;;9.82;58.16
73600;BME280;61877;48.246;9.220;2022-11-24T13:12:32;93946.06;;;9.43;61.29
73600;BME280;61877;48.246;9.220;2022-11-24T13:14:58;93953.78;;;8.67;63.28
73600;BME280;61877;48.246;9.220;2022-11-24T13:20:20;93957.09;;;8.64;66.21
73600;BME280;61877;48.246;9.220;2022-11-24T13:22:48;93962.25;;;8.69;67.61
73600;BME280;61877;48.246;9.220;2022-11-24T13:25:18;93973.00;;;8.81;67.62
73600;BME280;61877;48.246;9.220;2022-11-24T13:27:48;93970.63;;;8.47;63.02
73600;BME280;61877;48.246;9.220;2022-11-24T13:33:40;93983.19;;;8.26;63.79
73600;BME280;61877;48.246;9.220;2022-11-24T13:39:45;93988.06;;;8.44;63.24
73600;BME280;61877;48.246;9.220;2022-11-24T13:42:11;93985.97;;;8.29;63.66
73600;BME280;61877;48.246;9.220;2022-11-24T13:47:52;93982.22;;;8.30;63.98
73600;BME280;61877;48.246;9.220;2022-11-24T13:53:21;93979.81;;;8.37;65.32
73600;BME280;61877;48.246;9.220;2022-11-24T13:55:55;93977.63;;;8.31;69.51
73600;BME280;61877;48.246;9.220;2022-11-24T13:58:29;93978.50;;;8.14;71.34
73600;BME280;61877;48.246;9.220;2022-11-24T14:01:16;93977.97;;;8.00;71.47
73600;BME280;61877;48.246;9.220;2022-11-24T14:03:49;93983.72;;;8.11;66.96
73600;BME280;61877;48.246;9.220;2022-11-24T14:06:24;93976.16;;;8.42;65.59
73600;BME280;61877;48.246;9.220;2022-11-24T14:08:53;93970.59;;;8.67;66.11
73600;BME280;61877;48.246;9.220;2022-11-24T14:11:22;93969.44;;;8.56;68.79
73600;BME280;61877;48.246;9.220;2022-11-24T14:13:47;93971.50;;;8.51;69.13
73600;BME280;61877;48.246;9.220;2022-11-24T14:16:14;93970.56;;;8.55;67.32
73600;BME280;61877;48.246;9.220;2022-11-24T14:18:42;93969.38;;;8.65;66.72
73600;BME280;61877;48.246;9.220;2022-11-24T14:21:27;93970.09;;;8.53;65.76
73600;BME280;61877;48.246;9.220;2022-11-24T14:24:02;93977.56;;;8.39;67.81
73600;BME280;61877;48.246;9.220;2022-11-24T14:26:34;93975.38;;;8.41;70.84
73600;BME280;61877;48.246;9.220;2022-11-24T14:29:12;93974.84;;;8.27;71.39
73600;BME280;61877;48.246;9.220;2022-11-24T14:31:39;93974.09;;;8.18;67.29
73600;BME280;61877;48.246;9.220;2022-11-24T14:34:17;93986.97;;;8.16;67.97
73600;BME280;61877;48.246;9.220;2022-11-24T14:36:47;93986.50;;;8.14;67.49
73600;BME280;61877;48.246;9.220;2022-11-24T14:39:15;93987.50;;;8.10;67.78
73600;BME280;61877;48.246;9.220;2022-11-24T14:41:42;93994.66;;;8.18;68.47